Time;durP1;ratioP1;P1;durP2;ratioP2;P2;SDS_P1;SDS_P2;PMS_P1;PMS_P2;Temp;Humidity;BMP_temperature;BMP_pressure;BME280_temperature;BME280_humidity;BME280_pressure;Samples;Min_cycle;Max_cycle;Signal;HPM_P1;HPM_P2
2022/03/12 00:00:21;;;;;;;61.25;33.25;;;;;;;-6.18;83.87;100637.06;2073013;28;20242;-73
2022/03/12 00:01:35;;;;;;;70.03;32.60;;;;;;;-6.19;84.31;100635.44;2073876;28;20168;-73
2022/03/12 00:02:39;;;;;;;61.13;33.47;;;;;;;-6.21;84.74;100632.19;2074339;28;20172;-73
2022/03/12 00:03:42;;;;;;;67.50;33.60;;;;;;;-6.22;85.16;100633.16;2074052;28;20250;-73
2022/03/12 00:04:49;;;;;;;58.42;32.90;;;;;;;-6.21;85.22;100633.00;2074052;28;20199;-73
2022/03/12 00:06:00;;;;;;;62.03;33.35;;;;;;;-6.19;85.13;100640.66;2073483;28;20677;-72
2022/03/12 00:07:11;;;;;;;68.05;34.85;;;;;;;-6.17;85.03;100636.13;2073886;28;20685;-74
2022/03/12 00:08:21;;;;;;;60.38;33.60;;;;;;;-6.18;85.03;100637.91;2072690;28;20204;-73
2022/03/12 00:09:33;;;;;;;60.30;32.67;;;;;;;-6.19;84.81;100635.44;2066571;28;20197;-73
2022/03/12 00:10:41;;;;;;;67.50;33.88;;;;;;;-6.22;85.08;100633.97;2067126;28;20205;-73
2022/03/12 00:11:50;;;;;;;65.35;34.05;;;;;;;-6.23;85.19;100637.53;2073704;28;20225;-73
2022/03/12 00:12:59;;;;;;;67.18;33.40;;;;;;;-6.22;85.35;100633.97;2073299;28;20207;-73
2022/03/12 00:14:04;;;;;;;62.03;34.17;;;;;;;-6.21;85.52;100635.59;2073536;28;20227;-73
2022/03/12 00:15:09;;;;;;;74.32;35.10;;;;;;;-6.23;85.50;100634.13;2074102;28;20234;-73
2022/03/12 00:16:16;;;;;;;64.05;33.97;;;;;;;-6.26;85.51;100630.84;2072691;28;20223;-74
2022/03/12 00:17:18;;;;;;;72.05;34.95;;;;;;;-6.26;85.59;100636.03;2066480;28;20208;-73
2022/03/12 00:18:25;;;;;;;71.28;33.42;;;;;;;-6.30;86.20;100633.91;2065230;28;20199;-74
2022/03/12 00:19:35;;;;;;;73.32;35.30;;;;;;;-6.28;86.37;100637.16;2073485;28;20243;-73
2022/03/12 00:20:48;;;;;;;69.97;34.60;;;;;;;-6.30;86.77;100634.72;2073343;28;20206;-74
2022/03/12 00:21:58;;;;;;;69.20;34.55;;;;;;;-6.30;86.97;100633.91;2072976;28;20209;-74
2022/03/12 00:23:05;;;;;;;58.15;33.60;;;;;;;-6.32;86.91;100628.84;2073971;28;20204;-74
2022/03/12 00:24:15;;;;;;;68.07;35.25;;;;;;;-6.36;87.52;100626.69;2074864;28;20238;-74
2022/03/12 00:25:24;;;;;;;67.57;32.92;;;;;;;-6.35;87.79;100626.53;2081192;28;20176;-74
2022/03/12 00:26:29;;;;;;;67.18;34.20;;;;;;;-6.37;88.18;100625.88;2074037;28;20181;-74
2022/03/12 00:27:35;;;;;;;72.95;34.05;;;;;;;-6.37;88.66;100619.88;2073507;28;20232;-74
2022/03/12 00:28:44;;;;;;;64.57;34.25;;;;;;;-6.35;88.87;100623.13;2073612;28;20196;-73
2022/03/12 00:29:55;;;;;;;72.13;34.88;;;;;;;-6.37;89.07;100625.06;2073155;28;20200;-73
2022/03/12 00:31:03;;;;;;;65.30;35.15;;;;;;;-6.36;89.24;100624.09;2073396;28;20683;-73
2022/03/12 00:32:14;;;;;;;65.40;33.70;;;;;;;-6.36;89.54;100621.50;2074104;28;20264;-73
2022/03/12 00:33:17;;;;;;;64.75;34.10;;;;;;;-6.38;89.64;100624.25;2073988;28;20269;-73
2022/03/12 00:34:24;;;;;;;71.00;35.78;;;;;;;-6.39;89.96;100622.63;2072944;28;20278;-73
2022/03/12 00:35:30;;;;;;;65.85;34.13;;;;;;;-6.39;90.72;100621.81;2073407;28;20200;-73
2022/03/12 00:36:39;;;;;;;72.25;35.00;;;;;;;-6.41;91.21;100616.75;2073218;28;20243;-73
2022/03/12 00:37:44;;;;;;;70.95;34.65;;;;;;;-6.43;91.21;100623.03;2073399;28;20191;-73
2022/03/12 00:38:54;;;;;;;81.47;36.13;;;;;;;-6.46;91.94;100613.78;2073810;28;20196;-73
2022/03/12 00:39:56;;;;;;;72.40;34.85;;;;;;;-6.47;91.94;100614.75;2073223;28;20640;-74
2022/03/12 00:41:04;;;;;;;74.43;35.58;;;;;;;-6.51;92.20;100616.03;2073507;28;20579;-73
2022/03/12 00:42:19;;;;;;;63.95;34.38;;;;;;;-6.50;92.99;100622.03;2074113;28;20204;-73
2022/03/12 00:43:26;;;;;;;68.25;34.17;;;;;;;-6.53;93.20;100622.31;2073083;28;20644;-73
2022/03/12 00:44:34;;;;;;;63.60;34.58;;;;;;;-6.57;93.86;100625.19;2073334;28;20323;-74
2022/03/12 00:45:40;;;;;;;67.10;34.80;;;;;;;-6.55;93.80;100615.47;2073096;28;20196;-73
2022/03/12 00:46:43;;;;;;;71.95;35.35;;;;;;;-6.55;94.20;100623.28;2073492;28;20199;-73
2022/03/12 00:47:43;;;;;;;68.88;34.92;;;;;;;-6.55;94.53;100614.66;2073851;28;20314;-73
2022/03/12 00:48:48;;;;;;;62.70;35.93;;;;;;;-6.56;95.18;100608.66;2074008;28;20303;-73
2022/03/12 00:49:54;;;;;;;72.25;36.10;;;;;;;-6.56;96.12;100613.03;2073871;28;20196;-73
2022/03/12 00:50:57;;;;;;;74.90;37.00;;;;;;;-6.55;96.55;100610.28;2073035;28;20192;-72
2022/03/12 00:51:59;;;;;;;80.72;37.13;;;;;;;-6.55;96.96;100612.06;2073999;28;20234;-73
2022/03/12 00:53:07;;;;;;;74.95;36.28;;;;;;;-6.48;98.85;100604.50;2073117;28;20224;-73
2022/03/12 00:54:11;;;;;;;71.75;36.05;;;;;;;-6.48;99.16;100600.13;2073335;28;20264;-73
2022/03/12 00:55:16;;;;;;;70.28;36.13;;;;;;;-6.48;99.77;100602.72;2073933;28;20203;-73
2022/03/12 00:56:20;;;;;;;75.90;37.10;;;;;;;-6.47;100.00;100609.56;2073835;28;20191;-73
2022/03/12 00:57:29;;;;;;;75.18;35.97;;;;;;;-6.40;100.00;100607.19;2073194;28;20315;-73
2022/03/12 00:58:32;;;;;;;73.25;37.05;;;;;;;-6.38;100.00;100603.47;2065643;28;20696;-73
2022/03/12 00:59:37;;;;;;;73.80;36.50;;;;;;;-6.33;100.00;100611.66;2065548;28;20679;-73
2022/03/12 01:00:43;;;;;;;70.63;37.05;;;;;;;-6.34;100.00;100612.63;2066567;28;20221;-73
2022/03/12 01:01:44;;;;;;;75.55;36.35;;;;;;;-6.26;100.00;100612.66;2065391;28;20213;-73
2022/03/12 01:02:48;;;;;;;75.27;37.20;;;;;;;-6.28;100.00;100614.59;2065141;28;20193;-73
2022/03/12 01:03:50;;;;;;;74.72;36.45;;;;;;;-6.31;100.00;100612.31;2073198;28;20211;-73
2022/03/12 01:04:58;;;;;;;79.20;36.60;;;;;;;-6.32;100.00;100609.88;2073829;28;20228;-73
2022/03/12 01:06:05;;;;;;;68.18;36.17;;;;;;;-6.36;100.00;100611.94;2072180;28;20208;-73
2022/03/12 01:07:17;;;;;;;68.53;35.10;;;;;;;-6.39;100.00;100607.03;2073056;28;20683;-73
2022/03/12 01:08:25;;;;;;;73.38;35.95;;;;;;;-6.34;100.00;100611.78;2066443;28;20253;-73
2022/03/12 01:09:30;;;;;;;72.45;35.63;;;;;;;-6.32;100.00;100608.09;2073508;28;20635;-73
2022/03/12 01:10:35;;;;;;;72.85;36.42;;;;;;;-6.34;100.00;100612.63;2074007;28;20732;-73
2022/03/12 01:11:45;;;;;;;79.05;36.35;;;;;;;-6.34;100.00;100607.44;2073738;28;20560;-73
2022/03/12 01:12:57;;;;;;;82.80;37.17;;;;;;;-6.35;100.00;100605.75;2081145;28;20230;-73
2022/03/12 01:14:02;;;;;;;70.50;36.25;;;;;;;-6.35;100.00;100613.56;2073499;28;20192;-73
2022/03/12 01:15:09;;;;;;;74.68;38.45;;;;;;;-6.32;100.00;100617.66;2065902;28;20201;-73
2022/03/12 01:16:14;;;;;;;77.20;36.70;;;;;;;-6.34;100.00;100611.78;2073286;28;20643;-73
2022/03/12 01:17:17;;;;;;;76.82;37.78;;;;;;;-6.33;100.00;100621.22;2073944;28;20666;-73
2022/03/12 01:18:26;;;;;;;74.20;38.22;;;;;;;-6.34;100.00;100610.03;2073736;28;20185;-73
2022/03/12 01:19:35;;;;;;;71.03;37.25;;;;;;;-6.33;100.00;100610.84;2073626;28;20239;-73
2022/03/12 01:20:38;;;;;;;73.90;36.92;;;;;;;-6.36;100.00;100604.13;2074634;28;20259;-74
2022/03/12 01:21:40;;;;;;;76.05;37.90;;;;;;;-6.36;100.00;100617.13;2074338;28;20715;-73
2022/03/12 01:22:43;;;;;;;76.95;38.38;;;;;;;-6.38;100.00;100619.06;2067057;28;20204;-73
2022/03/12 01:23:47;;;;;;;75.63;37.42;;;;;;;-6.35;100.00;100621.34;2066567;28;20295;-74
2022/03/12 01:24:48;;;;;;;79.85;37.70;;;;;;;-6.37;100.00;100607.69;2074571;28;20195;-73
2022/03/12 01:25:57;;;;;;;74.07;37.78;;;;;;;-6.34;100.00;100620.41;2066434;28;20770;-73
2022/03/12 01:27:03;;;;;;;74.82;38.35;;;;;;;-6.39;100.00;100617.44;2074393;28;20235;-73
2022/03/12 01:28:17;;;;;;;70.43;35.88;;;;;;;-6.43;100.00;100623.84;2075141;28;20205;-73
2022/03/12 01:29:22;;;;;;;80.18;38.13;;;;;;;-6.44;100.00;100621.41;2081194;28;20209;-74
2022/03/12 01:30:32;;;;;;;74.40;39.08;;;;;;;-6.47;100.00;100617.34;2073956;28;20205;-73
2022/03/12 01:31:34;;;;;;;75.88;37.97;;;;;;;-6.49;100.00;100614.09;2074839;28;20189;-73
2022/03/12 01:32:39;;;;;;;73.20;37.53;;;;;;;-6.46;100.00;100612.97;2074447;28;20686;-73
2022/03/12 01:33:45;;;;;;;73.90;38.40;;;;;;;-6.48;100.00;100613.13;2074753;28;20188;-74
2022/03/12 01:34:50;;;;;;;76.95;38.78;;;;;;;-6.46;100.00;100606.00;2075154;28;20249;-73
2022/03/12 01:35:55;;;;;;;73.72;36.67;;;;;;;-6.45;100.00;100620.59;2074687;28;20590;-73
2022/03/12 01:36:58;;;;;;;77.53;38.33;;;;;;;-6.49;100.00;100614.09;2074495;28;20196;-74
2022/03/12 01:38:01;;;;;;;78.15;37.58;;;;;;;-6.51;100.00;100610.81;2074811;28;20184;-74
2022/03/12 01:39:06;;;;;;;79.18;38.28;;;;;;;-6.51;100.00;100604.81;2075144;28;20231;-73
2022/03/12 01:40:16;;;;;;;93.43;39.47;;;;;;;-6.55;100.00;100609.47;2075087;28;20555;-74
2022/03/12 01:41:31;;;;;;;77.22;37.88;;;;;;;-6.55;100.00;100610.28;2074421;28;20299;-73
2022/03/12 01:42:35;;;;;;;70.07;37.92;;;;;;;-6.55;100.00;100614.66;2068078;28;20700;-73
2022/03/12 01:43:42;;;;;;;75.50;38.72;;;;;;;-6.58;100.00;100609.78;2074570;28;20651;-73
2022/03/12 01:44:45;;;;;;;79.57;36.85;;;;;;;-6.59;100.00;100603.78;2075378;28;20679;-73
2022/03/12 01:45:50;;;;;;;74.68;38.65;;;;;;;-6.45;100.00;100610.22;2074680;28;20208;-73
2022/03/12 01:46:56;;;;;;;82.53;40.28;;;;;;;-6.46;100.00;100600.81;2067053;28;20200;-73
2022/03/12 01:48:04;;;;;;;78.75;38.83;;;;;;;-6.50;100.00;100598.66;2074588;28;20260;-73
2022/03/12 01:49:18;;;;;;;77.95;38.92;;;;;;;-6.52;100.00;100603.16;2075318;28;20227;-73
2022/03/12 01:50:23;;;;;;;78.55;38.83;;;;;;;-6.56;100.00;100597.47;2075164;28;20299;-73
2022/03/12 01:51:26;;;;;;;93.57;40.80;;;;;;;-6.56;100.00;100602.66;2074111;28;20594;-73
2022/03/12 01:52:33;;;;;;;77.40;38.65;;;;;;;-6.59;100.00;100598.59;2075018;28;20192;-73
2022/03/12 01:53:36;;;;;;;90.10;40.10;;;;;;;-6.60;100.00;100598.72;2074388;28;20683;-73
2022/03/12 01:54:45;;;;;;;78.05;39.05;;;;;;;-6.64;100.00;100597.38;2074258;28;20208;-73
2022/03/12 01:55:53;;;;;;;78.65;39.65;;;;;;;-6.67;100.00;100595.91;2075086;28;20215;-73
2022/03/12 01:56:59;;;;;;;78.90;39.38;;;;;;;-6.66;100.00;100597.53;2074994;28;20745;-73
2022/03/12 01:58:04;;;;;;;82.95;42.00;;;;;;;-6.68;100.00;100588.25;2074976;28;20215;-74
2022/03/12 01:59:10;;;;;;;86.78;40.33;;;;;;;-6.67;100.00;100595.91;2082489;28;20677;-74
2022/03/12 02:00:24;;;;;;;84.70;40.38;;;;;;;-6.69;100.00;100584.84;2074671;28;20204;-73
2022/03/12 02:01:27;;;;;;;80.45;38.85;;;;;;;-6.67;100.00;100585.53;2068795;28;20195;-73
2022/03/12 02:02:34;;;;;;;88.00;41.13;;;;;;;-6.69;100.00;100586.59;2074397;28;20238;-73
2022/03/12 02:03:42;;;;;;;86.88;40.90;;;;;;;-6.68;100.00;100593.47;2074165;28;20200;-73
2022/03/12 02:04:50;;;;;;;81.32;38.88;;;;;;;-6.72;100.00;100582.53;2075287;28;20212;-73
2022/03/12 02:05:54;;;;;;;81.50;40.33;;;;;;;-6.77;100.00;100578.78;2073753;28;20701;-73
2022/03/12 02:07:00;;;;;;;85.18;40.83;;;;;;;-6.81;100.00;100580.81;2074330;28;20702;-73
2022/03/12 02:08:07;;;;;;;87.25;40.53;;;;;;;-6.87;100.00;100578.81;2075179;28;20180;-73
2022/03/12 02:09:14;;;;;;;92.95;39.80;;;;;;;-6.89;100.00;100565.97;2075148;28;20177;-73
2022/03/12 02:10:24;;;;;;;83.85;40.03;;;;;;;-6.93;100.00;100569.84;2074130;28;20196;-73
2022/03/12 02:11:35;;;;;;;86.68;42.55;;;;;;;-6.94;100.00;100567.41;2074340;28;20628;-73
2022/03/12 02:12:38;;;;;;;83.47;39.92;;;;;;;-6.95;100.00;100568.34;2075042;28;20251;-73
2022/03/12 02:13:40;;;;;;;86.93;41.15;;;;;;;-6.97;100.00;100554.69;2074158;28;20188;-73
2022/03/12 02:14:45;;;;;;;80.95;40.75;;;;;;;-7.00;100.00;100560.19;2074398;28;20193;-74
2022/03/12 02:15:53;;;;;;;83.97;41.65;;;;;;;-6.97;100.00;100557.28;2075116;28;20176;-74
2022/03/12 02:16:58;;;;;;;84.63;41.65;;;;;;;-7.00;100.00;100557.59;2073062;28;20275;-74
2022/03/12 02:18:04;;;;;;;87.43;41.67;;;;;;;-6.99;100.00;100560.03;2074382;28;20562;-73
2022/03/12 02:19:08;;;;;;;90.88;41.35;;;;;;;-6.98;100.00;100558.25;2074545;28;20188;-72
2022/03/12 02:20:13;;;;;;;85.07;41.78;;;;;;;-7.01;100.00;100558.56;2075056;28;20263;-73
2022/03/12 02:21:16;;;;;;;88.78;40.58;;;;;;;-7.01;100.00;100558.56;2074357;28;20220;-73
2022/03/12 02:22:19;;;;;;;81.70;40.85;;;;;;;-7.02;100.00;100565.53;2074663;28;20247;-73
2022/03/12 02:23:24;;;;;;;89.13;42.38;;;;;;;-7.04;100.00;100553.66;2074892;28;20207;-73
2022/03/12 02:24:41;;;;;;;86.03;41.72;;;;;;;-6.97;100.00;100554.69;2074734;28;20238;-73
2022/03/12 02:25:54;;;;;;;91.78;41.75;;;;;;;-6.94;100.00;100557.84;2074932;28;20181;-73
2022/03/12 02:27:00;;;;;;;91.45;42.45;;;;;;;-6.94;100.00;100555.25;2074755;28;20231;-73
2022/03/12 02:28:18;;;;;;;83.68;40.22;;;;;;;-6.96;100.00;100559.72;2074836;28;20211;-73
2022/03/12 02:29:23;;;;;;;85.47;40.92;;;;;;;-6.89;100.00;100547.81;2074923;28;20266;-73
2022/03/12 02:30:34;;;;;;;91.10;42.42;;;;;;;-6.90;100.00;100550.56;2074018;28;20650;-73
2022/03/12 02:31:37;;;;;;;91.40;42.00;;;;;;;-6.86;100.00;100549.31;2074055;28;20180;-73
2022/03/12 02:32:50;;;;;;;84.60;41.25;;;;;;;-6.80;100.00;100545.31;2074726;28;20181;-73
2022/03/12 02:34:00;;;;;;;82.18;40.92;;;;;;;-6.76;100.00;100546.66;2074745;28;20187;-73
2022/03/12 02:35:03;;;;;;;88.55;41.28;;;;;;;-6.71;100.00;100558.22;2074424;28;20200;-73
2022/03/12 02:36:12;;;;;;;86.10;41.55;;;;;;;-6.73;100.00;100543.75;2073735;28;20255;-73
2022/03/12 02:37:30;;;;;;;79.40;39.85;;;;;;;-6.71;100.00;100553.03;2074862;28;20599;-73
2022/03/12 02:38:35;;;;;;;85.38;41.95;;;;;;;-6.70;100.00;100553.84;2074005;28;20196;-73
2022/03/12 02:39:48;;;;;;;90.35;41.92;;;;;;;-6.70;100.00;100559.03;2074238;28;20188;-73
2022/03/12 02:40:52;;;;;;;81.13;40.75;;;;;;;-6.76;100.00;100544.88;2074889;28;20180;-73
2022/03/12 02:41:59;;;;;;;88.80;41.35;;;;;;;-6.77;100.00;100552.81;2074735;28;20195;-73
2022/03/12 02:43:03;;;;;;;88.80;41.67;;;;;;;-6.79;100.00;100549.53;2074908;28;20200;-73
2022/03/12 02:44:17;;;;;;;80.60;42.63;;;;;;;-6.84;100.00;100550.00;2074522;28;20215;-73
2022/03/12 02:45:23;;;;;;;82.93;39.95;;;;;;;-6.88;100.00;100552.03;2074616;28;20195;-73
2022/03/12 02:46:30;;;;;;;82.47;41.05;;;;;;;-6.89;100.00;100560.78;2074608;28;20193;-73
2022/03/12 02:47:39;;;;;;;89.60;41.42;;;;;;;-6.93;100.00;100551.69;2074242;28;20702;-73
2022/03/12 02:48:50;;;;;;;88.75;42.50;;;;;;;-6.96;100.00;100553.72;2074077;28;20612;-73
2022/03/12 02:50:02;;;;;;;88.22;42.47;;;;;;;-7.00;100.00;100552.41;2081848;28;20211;-73
2022/03/12 02:51:13;;;;;;;94.68;42.60;;;;;;;-7.03;100.00;100553.53;2073400;28;20208;-73
2022/03/12 02:52:17;;;;;;;83.20;41.90;;;;;;;-7.08;100.00;100550.53;2075374;28;20204;-73
2022/03/12 02:53:23;;;;;;;87.18;41.60;;;;;;;-7.09;100.00;100553.28;2073853;28;20204;-73
2022/03/12 02:54:29;;;;;;;91.47;41.50;;;;;;;-7.10;100.00;100555.06;2074029;28;20312;-73
2022/03/12 02:55:38;;;;;;;84.45;41.03;;;;;;;-7.13;100.00;100557.91;2073390;28;20204;-73
2022/03/12 02:56:42;;;;;;;83.30;41.85;;;;;;;-7.14;100.00;100559.69;2074167;28;20663;-73
2022/03/12 02:57:55;;;;;;;93.15;41.35;;;;;;;-7.14;100.00;100551.09;2074524;28;20184;-73
2022/03/12 02:58:59;;;;;;;84.60;41.80;;;;;;;-7.10;100.00;100542.09;2074617;28;20175;-73
2022/03/12 03:00:06;;;;;;;81.53;39.15;;;;;;;-7.11;100.00;100550.84;2074538;28;20196;-73
2022/03/12 03:01:13;;;;;;;85.78;41.47;;;;;;;-7.10;100.00;100544.69;2074431;28;20683;-73
2022/03/12 03:02:38;;;;;;;81.72;40.33;;;;;;;-7.09;100.00;100548.91;2066657;28;20546;-73
2022/03/12 03:03:42;;;;;;;88.25;39.35;;;;;;;-7.07;100.00;100559.94;2073953;28;20254;-73
2022/03/12 03:04:52;;;;;;;82.97;41.22;;;;;;;-7.00;100.00;100553.22;2074599;28;20525;-73
2022/03/12 03:06:01;;;;;;;81.97;41.80;;;;;;;-6.92;100.00;100560.28;2073937;28;20165;-72
2022/03/12 03:07:05;;;;;;;82.35;39.83;;;;;;;-6.86;100.00;100557.94;2074402;28;20196;-73
2022/03/12 03:08:13;;;;;;;91.70;41.45;;;;;;;-6.92;100.00;100560.28;2074404;28;20302;-73
2022/03/12 03:09:17;;;;;;;81.03;40.45;;;;;;;-7.01;100.00;100556.78;2074533;28;20188;-73
2022/03/12 03:10:33;;;;;;;76.90;39.25;;;;;;;-7.05;100.00;100555.41;2074413;28;20580;-73
2022/03/12 03:11:44;;;;;;;86.55;40.83;;;;;;;-7.12;100.00;100559.59;2073990;28;20249;-73
2022/03/12 03:12:53;;;;;;;87.45;40.55;;;;;;;-7.17;100.00;100560.00;2067224;28;20201;-73
2022/03/12 03:13:56;;;;;;;84.10;40.35;;;;;;;-7.22;100.00;100563.97;2073895;28;20553;-73
2022/03/12 03:14:58;;;;;;;90.40;41.33;;;;;;;-7.27;100.00;100567.00;2074379;28;20196;-73
2022/03/12 03:16:04;;;;;;;79.20;40.70;;;;;;;-7.30;100.00;100561.28;2074641;28;20523;-73
2022/03/12 03:17:10;;;;;;;84.22;41.38;;;;;;;-7.36;100.00;100560.09;2074521;28;20180;-73
2022/03/12 03:18:16;;;;;;;75.28;39.08;;;;;;;-7.38;100.00;100559.44;2074664;28;20620;-73
2022/03/12 03:19:25;;;;;;;82.63;41.22;;;;;;;-7.40;100.00;100559.56;2074135;28;20568;-73
2022/03/12 03:20:30;;;;;;;89.80;41.65;;;;;;;-7.44;100.00;100554.81;2073346;28;20208;-73
2022/03/12 03:21:40;;;;;;;79.15;39.83;;;;;;;-7.44;100.00;100560.00;2073314;28;20278;-73
2022/03/12 03:22:41;;;;;;;92.28;42.72;;;;;;;-7.46;100.00;100554.97;2073652;28;20250;-73
2022/03/12 03:23:47;;;;;;;77.43;40.45;;;;;;;-7.49;100.00;100555.22;2073888;28;20189;-73
2022/03/12 03:24:49;;;;;;;84.15;40.83;;;;;;;-7.49;100.00;100552.63;2074335;28;20686;-73
2022/03/12 03:25:57;;;;;;;85.50;41.05;;;;;;;-7.53;100.00;100555.66;2074418;28;20215;-73
2022/03/12 03:27:08;;;;;;;84.82;42.22;;;;;;;-7.54;100.00;100554.03;2073135;28;20208;-73
2022/03/12 03:28:14;;;;;;;96.72;43.13;;;;;;;-7.55;100.00;100555.81;2073701;28;20212;-73
2022/03/12 03:29:21;;;;;;;89.90;41.90;;;;;;;-7.56;100.00;100561.94;2074442;28;20176;-73
2022/03/12 03:30:30;;;;;;;81.03;41.30;;;;;;;-7.58;100.00;100558.66;2074337;28;20177;-73
2022/03/12 03:31:32;;;;;;;80.88;41.95;;;;;;;-7.61;100.00;100558.97;2074295;28;20213;-73
2022/03/12 03:32:34;;;;;;;87.97;42.45;;;;;;;-7.63;100.00;100558.28;2074315;28;20196;-73
2022/03/12 03:33:38;;;;;;;81.07;40.65;;;;;;;-7.63;100.00;100560.06;2074057;28;20276;-74
2022/03/12 03:34:44;;;;;;;86.10;41.15;;;;;;;-7.63;100.00;100554.88;2074210;28;20674;-73
2022/03/12 03:35:50;;;;;;;85.95;42.17;;;;;;;-7.66;100.00;100557.75;2074420;28;20295;-73
2022/03/12 03:36:58;;;;;;;91.80;42.13;;;;;;;-7.70;100.00;100555.44;2073500;28;20266;-73
2022/03/12 03:37:59;;;;;;;85.78;41.47;;;;;;;-7.71;100.00;100555.59;2074285;28;20654;-73
2022/03/12 03:39:06;;;;;;;95.80;43.05;;;;;;;-7.73;100.00;100560.06;2073500;28;20714;-73
2022/03/12 03:40:14;;;;;;;91.72;42.47;;;;;;;-7.74;100.00;100564.44;2074044;28;20655;-73
2022/03/12 03:41:18;;;;;;;80.95;40.47;;;;;;;-7.77;100.00;100558.72;2074242;28;20557;-73
2022/03/12 03:42:26;;;;;;;85.10;42.13;;;;;;;-7.77;100.00;100563.91;2074209;28;20267;-73
2022/03/12 03:43:29;;;;;;;82.47;40.42;;;;;;;-7.78;100.00;100570.06;2072434;28;20607;-73
2022/03/12 03:44:31;;;;;;;83.95;40.20;;;;;;;-7.81;100.00;100562.56;2073918;28;20196;-73
2022/03/12 03:45:37;;;;;;;76.60;41.20;;;;;;;-7.80;100.00;100567.63;2074332;28;20197;-73
2022/03/12 03:46:43;;;;;;;81.15;40.40;;;;;;;-7.81;100.00;100565.97;2073237;28;20200;-73
2022/03/12 03:47:50;;;;;;;82.60;42.28;;;;;;;-7.79;100.00;100568.44;2073537;28;20188;-73
2022/03/12 03:48:56;;;;;;;81.70;41.28;;;;;;;-7.73;100.00;100560.06;2074260;28;20187;-73
2022/03/12 03:50:02;;;;;;;79.97;40.78;;;;;;;-7.79;100.00;100556.28;2073997;28;20231;-73
2022/03/12 03:51:08;;;;;;;85.15;40.95;;;;;;;-7.77;100.00;100566.50;2073537;28;20188;-73
2022/03/12 03:52:10;;;;;;;80.75;40.47;;;;;;;-7.80;100.00;100561.63;2074285;28;20243;-73
2022/03/12 03:53:25;;;;;;;91.20;40.97;;;;;;;-7.81;100.00;100563.38;2073443;28;20214;-73
2022/03/12 03:54:32;;;;;;;84.88;42.67;;;;;;;-7.81;100.00;100562.56;2073793;28;20181;-73
2022/03/12 03:55:40;;;;;;;93.47;41.65;;;;;;;-7.75;100.00;100560.22;2074087;28;20223;-73
2022/03/12 03:56:46;;;;;;;85.72;42.38;;;;;;;-7.62;100.00;100551.34;2074142;28;20687;-73
2022/03/12 03:57:53;;;;;;;90.90;42.47;;;;;;;-7.65;100.00;100556.78;2074017;28;20200;-73
2022/03/12 03:58:58;;;;;;;88.30;43.08;;;;;;;-7.69;100.00;100559.66;2073509;28;20553;-73
2022/03/12 04:00:03;;;;;;;83.63;41.97;;;;;;;-7.70;100.00;100559.81;2073031;28;20296;-73
2022/03/12 04:01:22;;;;;;;88.53;43.50;;;;;;;-7.69;100.00;100553.66;2073631;28;20203;-73
2022/03/12 04:02:33;;;;;;;90.72;42.90;;;;;;;-7.69;100.00;100556.25;2073992;28;20200;-73
2022/03/12 04:03:44;;;;;;;83.45;41.50;;;;;;;-7.78;100.00;100547.56;2074073;28;20192;-73
2022/03/12 04:04:48;;;;;;;89.78;41.88;;;;;;;-7.83;100.00;100554.09;2074037;28;20192;-73
2022/03/12 04:05:51;;;;;;;82.78;41.83;;;;;;;-7.84;100.00;100557.66;2073551;28;20196;-72
2022/03/12 04:06:54;;;;;;;84.15;41.97;;;;;;;-7.89;100.00;100552.09;2074056;28;20192;-73
2022/03/12 04:08:00;;;;;;;89.38;41.20;;;;;;;-7.93;100.00;100553.31;2074073;28;20192;-73
2022/03/12 04:09:15;;;;;;;80.13;41.58;;;;;;;-7.94;100.00;100551.69;2074714;28;20204;-73
2022/03/12 04:10:23;;;;;;;87.00;41.28;;;;;;;-7.95;100.00;100555.22;2073610;28;20245;-74
2022/03/12 04:11:35;;;;;;;86.60;43.67;;;;;;;-7.97;100.00;100563.16;2074078;28;20226;-73
2022/03/12 04:12:37;;;;;;;85.35;42.00;;;;;;;-7.99;100.00;100557.31;2073307;28;20299;-73
2022/03/12 04:13:44;;;;;;;83.60;42.92;;;;;;;-8.01;100.00;100562.59;2073354;28;20196;-73
2022/03/12 04:14:54;;;;;;;89.82;43.38;;;;;;;-8.00;100.00;100558.22;2073483;28;20188;-73
2022/03/12 04:15:59;;;;;;;97.78;42.95;;;;;;;-7.88;100.00;100558.91;2074251;28;20208;-73
2022/03/12 04:17:08;;;;;;;96.82;43.05;;;;;;;-7.69;100.00;100556.25;2073991;28;20184;-73
2022/03/12 04:18:15;;;;;;;89.65;43.25;;;;;;;-7.69;100.00;100559.66;2073735;28;20676;-73
2022/03/12 04:19:19;;;;;;;81.13;42.83;;;;;;;-7.77;100.00;100553.56;2073116;28;20199;-73
2022/03/12 04:20:22;;;;;;;91.50;42.97;;;;;;;-7.83;100.00;100559.28;2074112;28;20260;-73
2022/03/12 04:21:31;;;;;;;94.60;44.20;;;;;;;-7.88;100.00;100556.31;2073781;28;20224;-73
2022/03/12 04:22:41;;;;;;;81.60;41.90;;;;;;;-7.92;100.00;100565.31;2074238;28;20642;-73
2022/03/12 04:23:51;;;;;;;83.35;43.47;;;;;;;-7.96;100.00;100557.00;2073990;28;20177;-73
2022/03/12 04:24:59;;;;;;;83.97;43.03;;;;;;;-8.00;100.00;100553.06;2073277;28;20212;-73
2022/03/12 04:26:09;;;;;;;97.03;45.08;;;;;;;-8.01;100.00;100554.00;2073567;28;20179;-73
2022/03/12 04:27:15;;;;;;;87.95;42.22;;;;;;;-8.05;100.00;100550.06;2073399;28;20230;-73
2022/03/12 04:28:18;;;;;;;87.25;43.80;;;;;;;-8.08;100.00;100553.78;2073257;28;20223;-73
2022/03/12 04:29:27;;;;;;;86.68;43.92;;;;;;;-8.07;100.00;100555.41;2073416;28;20216;-74
2022/03/12 04:30:43;;;;;;;95.95;43.03;;;;;;;-8.11;100.00;100554.03;2073883;28;20207;-73
2022/03/12 04:31:57;;;;;;;88.53;42.75;;;;;;;-8.10;100.00;100547.88;2067766;28;20204;-73
2022/03/12 04:33:02;;;;;;;89.03;43.05;;;;;;;-8.11;100.00;100551.44;2073417;28;20172;-73
2022/03/12 04:34:06;;;;;;;88.22;41.60;;;;;;;-8.10;100.00;100545.31;2074057;28;20583;-73
2022/03/12 04:35:08;;;;;;;86.35;42.65;;;;;;;-8.10;100.00;100545.31;2073913;28;20192;-73
2022/03/12 04:36:11;;;;;;;95.68;42.38;;;;;;;-8.08;100.00;100551.19;2073415;28;20219;-73
2022/03/12 04:37:15;;;;;;;88.38;43.38;;;;;;;-8.07;100.00;100550.22;2073945;28;20181;-73
2022/03/12 04:38:24;;;;;;;86.65;43.00;;;;;;;-8.10;100.00;100553.06;2074085;28;20590;-73
2022/03/12 04:39:39;;;;;;;90.03;41.88;;;;;;;-8.08;100.00;100551.19;2073834;28;20195;-73
2022/03/12 04:40:50;;;;;;;91.88;43.85;;;;;;;-8.08;100.00;100558.94;2074275;28;20628;-73
2022/03/12 04:41:55;;;;;;;88.50;41.70;;;;;;;-8.07;100.00;100552.00;2073486;28;20212;-73
2022/03/12 04:42:57;;;;;;;82.78;41.38;;;;;;;-8.09;100.00;100552.09;2073438;28;20727;-73
2022/03/12 04:44:00;;;;;;;88.75;40.97;;;;;;;-8.09;100.00;100543.53;2073211;28;20382;-73
2022/03/12 04:45:16;;;;;;;93.85;42.72;;;;;;;-8.10;100.00;100547.06;2073548;28;20196;-73
2022/03/12 04:46:24;;;;;;;86.07;41.85;;;;;;;-8.10;100.00;100547.88;2073910;28;20231;-73
2022/03/12 04:47:39;;;;;;;84.60;41.50;;;;;;;-8.10;100.00;100550.47;2073126;28;20219;-73
2022/03/12 04:48:46;;;;;;;94.65;41.47;;;;;;;-8.10;100.00;100545.31;2073501;28;20565;-74
2022/03/12 04:49:52;;;;;;;92.53;42.30;;;;;;;-8.07;100.00;100534.69;2073070;28;20196;-73
2022/03/12 04:50:55;;;;;;;84.38;41.22;;;;;;;-8.05;100.00;100545.72;2072872;28;20644;-73
2022/03/12 04:52:02;;;;;;;91.85;41.85;;;;;;;-8.03;100.00;100540.38;2073844;28;20198;-73
2022/03/12 04:53:09;;;;;;;89.63;41.22;;;;;;;-8.04;100.00;100547.34;2073847;28;20287;-73
2022/03/12 04:54:21;;;;;;;84.80;42.72;;;;;;;-8.05;100.00;100547.50;2072869;28;20654;-74
2022/03/12 04:55:30;;;;;;;84.47;42.38;;;;;;;-8.04;100.00;100547.34;2069087;28;20642;-73
2022/03/12 04:56:37;;;;;;;83.13;40.45;;;;;;;-8.07;100.00;100544.22;2075161;28;20660;-73
2022/03/12 04:57:41;;;;;;;89.03;42.15;;;;;;;-8.05;100.00;100537.94;2075687;28;20533;-74
2022/03/12 04:58:53;;;;;;;89.80;42.83;;;;;;;-8.06;100.00;100538.91;2075428;28;20195;-73
2022/03/12 05:00:04;;;;;;;87.93;42.33;;;;;;;-8.06;100.00;100536.31;2075471;28;20196;-74
2022/03/12 05:01:22;;;;;;;82.95;39.88;;;;;;;-8.06;100.00;100538.09;2075183;28;20177;-73